createdAt,value
2023-12-22T00:01:47.109Z,6.31
2023-12-22T00:06:50.222Z,6.21
2023-12-22T00:11:53.325Z,6.34
2023-12-22T00:16:57.912Z,6.26
2023-12-22T00:22:01.104Z,6.36
2023-12-22T00:27:04.884Z,6.25
2023-12-22T00:32:10.877Z,6.36
2023-12-22T00:37:14.457Z,6.31
2023-12-22T00:42:17.623Z,6.21
2023-12-22T00:47:22.054Z,6.19
2023-12-22T00:52:25.509Z,5.76
2023-12-22T00:57:28.643Z,5.57
2023-12-22T01:02:33.058Z,5.36
2023-12-22T01:07:36.228Z,5.27
2023-12-22T01:12:39.399Z,5.08
2023-12-22T01:17:43.912Z,5.06
2023-12-22T01:22:47.261Z,5.03
2023-12-22T01:27:53.333Z,5.12
2023-12-22T01:32:57.892Z,5.33
2023-12-22T01:38:01.191Z,5.40
2023-12-22T01:43:04.595Z,5.27
2023-12-22T01:48:09.603Z,5.09
2023-12-22T01:53:13.256Z,5.04
2023-12-22T01:58:16.662Z,5.09
2023-12-22T02:03:21.489Z,5.13
2023-12-22T02:08:26.665Z,5.30
2023-12-22T02:13:29.863Z,5.33
2023-12-22T02:18:37.984Z,5.23
2023-12-22T02:23:42.425Z,5.29
2023-12-22T02:28:48.598Z,5.28
2023-12-22T02:33:56.301Z,5.33
2023-12-22T02:39:02.902Z,5.43
2023-12-22T02:44:06.660Z,5.39
2023-12-22T02:49:10.114Z,5.51
2023-12-22T02:54:14.638Z,5.69
2023-12-22T02:59:17.842Z,5.86
2023-12-22T03:04:21.083Z,6.03
2023-12-22T03:09:25.707Z,5.99
2023-12-22T03:14:28.944Z,6.08
2023-12-22T03:19:32.371Z,6.20
2023-12-22T03:24:38.191Z,6.29
2023-12-22T03:29:41.360Z,6.30
2023-12-22T03:34:44.443Z,6.35
2023-12-22T03:39:48.889Z,6.56
2023-12-22T03:44:52.004Z,6.46
2023-12-22T03:49:55.274Z,6.51
2023-12-22T03:54:59.733Z,6.53
2023-12-22T04:00:02.878Z,6.69
2023-12-22T04:05:06.689Z,6.75
2023-12-22T04:10:11.679Z,6.74
2023-12-22T04:15:15.087Z,6.77
2023-12-22T04:20:18.522Z,6.79
2023-12-22T04:25:24.190Z,6.81
2023-12-22T04:30:31.268Z,6.74
2023-12-22T04:35:35.779Z,6.66
2023-12-22T04:40:40.236Z,6.51
2023-12-22T04:45:43.395Z,5.91
2023-12-22T04:50:46.623Z,5.76
2023-12-22T04:55:51.083Z,5.62
2023-12-22T05:00:54.199Z,5.60
2023-12-22T05:05:57.399Z,5.75
2023-12-22T05:11:01.887Z,5.87
2023-12-22T05:16:06.509Z,5.93
2023-12-22T05:21:09.593Z,6.09
2023-12-22T05:26:19.870Z,6.05
2023-12-22T05:31:23.147Z,6.11
2023-12-22T05:36:27.237Z,6.16
2023-12-22T05:41:31.741Z,6.31
2023-12-22T05:46:39.629Z,6.29
2023-12-22T05:51:43.157Z,6.40
2023-12-22T05:56:47.795Z,6.46
2023-12-22T06:01:55.590Z,6.20
2023-12-22T06:06:58.799Z,5.94
2023-12-22T06:12:03.216Z,6.20
2023-12-22T06:17:06.385Z,6.22
2023-12-22T06:22:09.520Z,6.27
2023-12-22T06:27:13.999Z,6.35
2023-12-22T06:32:18.385Z,6.43
2023-12-22T06:37:21.484Z,6.50
2023-12-22T06:42:25.917Z,6.51
2023-12-22T06:47:29.429Z,6.58
2023-12-22T06:52:32.653Z,6.66
2023-12-22T06:57:37.663Z,6.54
2023-12-22T07:02:41.135Z,6.49
2023-12-22T07:07:44.303Z,6.57
2023-12-22T07:12:49.389Z,6.61
2023-12-22T07:17:53.309Z,6.74
2023-12-22T07:22:58.039Z,6.72
2023-12-22T07:28:02.781Z,6.71
2023-12-22T07:33:06.648Z,6.66
2023-12-22T07:38:10.692Z,6.77
2023-12-22T07:43:15.505Z,6.87
2023-12-22T07:48:18.737Z,6.93
2023-12-22T07:53:22.292Z,6.95
2023-12-22T07:58:26.774Z,6.96
2023-12-22T08:03:30.102Z,6.97
2023-12-22T08:08:34.551Z,7.02
2023-12-22T08:13:39.002Z,7.20
2023-12-22T08:18:42.195Z,7.15
2023-12-22T08:23:51.160Z,6.95
2023-12-22T08:28:59.094Z,7.15
2023-12-22T08:34:02.242Z,7.09
2023-12-22T08:39:06.288Z,6.94
2023-12-22T08:44:11.271Z,6.77
2023-12-22T08:49:14.766Z,6.75
2023-12-22T08:54:18.090Z,6.65
2023-12-22T08:59:22.614Z,6.67
2023-12-22T09:04:25.810Z,6.84
2023-12-22T09:09:29.003Z,6.71
2023-12-22T09:14:33.591Z,6.71
2023-12-22T09:19:39.960Z,6.70
2023-12-22T09:24:43.190Z,6.57
2023-12-22T09:29:47.784Z,6.71
2023-12-22T09:34:51.300Z,6.70
2023-12-22T09:39:54.645Z,6.86
2023-12-22T09:45:03.043Z,6.85
2023-12-22T09:50:08.176Z,6.82
2023-12-22T09:55:12.037Z,6.75
2023-12-22T10:00:17.953Z,6.79
2023-12-22T10:05:21.215Z,6.76
2023-12-22T10:10:25.510Z,6.70
2023-12-22T10:15:30.881Z,6.80
2023-12-22T10:20:34.170Z,6.87
2023-12-22T10:25:37.615Z,6.92
2023-12-22T10:30:43.071Z,7.05
2023-12-22T10:35:46.248Z,7.14
2023-12-22T10:40:49.450Z,6.98
2023-12-22T10:45:55.513Z,7.12
2023-12-22T10:50:59.733Z,7.08
2023-12-22T10:56:03.135Z,7.04
2023-12-22T11:01:08.638Z,7.05
2023-12-22T11:06:14.834Z,7.17
2023-12-22T11:11:25.387Z,7.09
2023-12-22T11:16:31.416Z,7.05
2023-12-22T11:21:34.889Z,7.22
2023-12-22T11:26:40.764Z,7.24
2023-12-22T11:31:49.976Z,7.38
2023-12-22T11:36:54.308Z,7.43
2023-12-22T11:41:58.625Z,7.45
2023-12-22T11:47:14.526Z,7.46
2023-12-22T11:52:19.288Z,7.60
2023-12-22T11:57:36.160Z,7.57
2023-12-22T12:02:43.071Z,7.53
2023-12-22T12:07:49.272Z,7.55
2023-12-22T12:13:06.960Z,7.64
2023-12-22T12:18:13.392Z,7.66
2023-12-22T12:23:18.544Z,7.61
2023-12-22T12:28:28.384Z,7.55
2023-12-22T12:33:33.643Z,7.55
2023-12-22T12:38:51.640Z,7.49
2023-12-22T12:43:57.202Z,7.57
2023-12-22T12:49:07.488Z,7.52
2023-12-22T12:54:11.420Z,7.43
2023-12-22T12:59:15.600Z,7.46
2023-12-22T13:04:21.348Z,7.38
2023-12-22T13:09:35.126Z,7.42
2023-12-22T13:14:38.314Z,7.39
2023-12-22T13:19:43.003Z,7.37
2023-12-22T13:24:58.136Z,7.53
2023-12-22T13:30:01.229Z,7.51
2023-12-22T13:35:06.701Z,7.48
2023-12-22T13:40:11.627Z,7.50
2023-12-22T13:45:14.941Z,7.34
2023-12-22T13:50:20.147Z,7.55
2023-12-22T13:55:25.050Z,7.60
2023-12-22T14:00:30.544Z,7.46
2023-12-22T14:05:36.351Z,7.57
2023-12-22T14:10:39.708Z,7.63
2023-12-22T14:15:45.778Z,7.86
2023-12-22T14:20:50.573Z,7.91
2023-12-22T14:25:53.917Z,8.21
2023-12-22T14:30:57.108Z,8.17
2023-12-22T14:36:01.677Z,8.40
2023-12-22T14:41:05.148Z,8.40
2023-12-22T14:46:08.602Z,8.39
2023-12-22T14:51:13.027Z,8.46
2023-12-22T14:56:16.180Z,8.56
2023-12-22T15:01:19.305Z,8.63
2023-12-22T15:06:24.110Z,8.67
2023-12-22T15:11:27.329Z,8.70
2023-12-22T15:16:30.976Z,8.66
2023-12-22T15:21:35.445Z,8.66
2023-12-22T15:26:38.635Z,8.81
2023-12-22T15:31:41.730Z,8.71
2023-12-22T15:36:47.476Z,8.78
2023-12-22T15:41:50.738Z,8.74
2023-12-22T15:46:53.892Z,8.75
2023-12-22T15:51:58.405Z,8.84
2023-12-22T15:57:03.474Z,8.66
2023-12-22T16:02:07.977Z,8.73
2023-12-22T16:07:12.481Z,8.66
2023-12-22T16:12:15.576Z,8.79
2023-12-22T16:17:18.645Z,8.84
2023-12-22T16:22:23.092Z,8.80
2023-12-22T16:27:26.223Z,8.82
2023-12-22T16:32:29.372Z,8.88
2023-12-22T16:37:33.869Z,8.94
2023-12-22T16:42:37.046Z,8.86
2023-12-22T16:47:40.179Z,8.98
2023-12-22T16:52:45.341Z,8.91
2023-12-22T16:57:48.959Z,8.95
2023-12-22T17:02:52.494Z,8.98
2023-12-22T17:07:57.476Z,9.04
2023-12-22T17:13:00.752Z,8.96
2023-12-22T17:18:05.892Z,8.97
2023-12-22T17:23:10.453Z,9.06
2023-12-22T17:28:13.632Z,9.03
2023-12-22T17:33:16.748Z,9.05
2023-12-22T17:38:21.341Z,9.11
2023-12-22T17:43:24.502Z,9.09
2023-12-22T17:48:27.760Z,9.14
2023-12-22T17:53:32.293Z,9.03
2023-12-22T17:58:35.415Z,9.07
2023-12-22T18:03:38.566Z,9.17
2023-12-22T18:08:43.028Z,9.24
2023-12-22T18:13:46.234Z,9.13
2023-12-22T18:18:49.755Z,9.26
2023-12-22T18:23:54.277Z,9.19
2023-12-22T18:28:57.601Z,9.23
2023-12-22T18:34:00.804Z,9.22
2023-12-22T18:39:05.476Z,9.20
2023-12-22T18:44:08.797Z,9.18
2023-12-22T18:49:14.683Z,9.36
2023-12-22T18:54:19.313Z,9.24
2023-12-22T18:59:22.495Z,9.27
2023-12-22T19:04:27.942Z,9.29
2023-12-22T19:09:33.223Z,9.24
2023-12-22T19:14:36.322Z,9.41
2023-12-22T19:19:39.498Z,9.41
2023-12-22T19:24:43.971Z,9.31
2023-12-22T19:29:47.111Z,9.41
2023-12-22T19:34:50.926Z,9.28
2023-12-22T19:39:55.558Z,9.33
2023-12-22T19:44:58.686Z,9.35
2023-12-22T19:50:01.976Z,9.42
2023-12-22T19:55:08.049Z,9.48
2023-12-22T20:00:13.055Z,9.34
2023-12-22T20:05:16.496Z,9.43
2023-12-22T20:10:21.086Z,9.41
2023-12-22T20:15:24.183Z,9.35
2023-12-22T20:20:27.687Z,9.39
2023-12-22T20:25:32.631Z,9.45
2023-12-22T20:30:35.762Z,9.41
2023-12-22T20:35:39.037Z,9.43
2023-12-22T20:40:43.566Z,9.54
2023-12-22T20:45:48.873Z,9.45
2023-12-22T20:50:52.434Z,9.53
2023-12-22T20:55:56.977Z,9.42
2023-12-22T21:01:00.085Z,9.38
2023-12-22T21:06:07.222Z,9.37
2023-12-22T21:11:11.786Z,9.40
2023-12-22T21:16:14.923Z,9.40
2023-12-22T21:21:18.616Z,9.35
2023-12-22T21:26:24.468Z,9.42
2023-12-22T21:31:27.570Z,9.37
2023-12-22T21:36:30.846Z,9.40
2023-12-22T21:41:35.303Z,9.33
2023-12-22T21:46:45.312Z,9.38
2023-12-22T21:51:48.473Z,9.35
2023-12-22T21:56:54.306Z,9.28
2023-12-22T22:01:57.540Z,9.12
2023-12-22T22:07:00.740Z,8.98
2023-12-22T22:12:05.970Z,8.74
2023-12-22T22:17:09.226Z,8.57
2023-12-22T22:22:13.278Z,8.52
2023-12-22T22:27:17.747Z,8.50
2023-12-22T22:32:20.940Z,8.48
2023-12-22T22:37:24.080Z,8.48
2023-12-22T22:42:28.936Z,8.56
2023-12-22T22:47:33.658Z,8.52
2023-12-22T22:52:37.171Z,8.54
2023-12-22T22:57:41.656Z,8.59
2023-12-22T23:02:45.407Z,8.60
2023-12-22T23:07:48.846Z,8.65
2023-12-22T23:12:53.581Z,8.68
2023-12-22T23:17:57.499Z,8.75
2023-12-22T23:23:00.729Z,8.69
2023-12-22T23:28:05.882Z,8.75
2023-12-22T23:33:09.305Z,8.73
2023-12-22T23:38:14.345Z,8.75
2023-12-22T23:43:18.937Z,8.82
2023-12-22T23:48:22.066Z,8.84
2023-12-22T23:53:25.254Z,8.84
2023-12-22T23:58:29.678Z,8.79
